Time;durP1;ratioP1;P1;durP2;ratioP2;P2;SDS_P1;SDS_P2;PMS_P1;PMS_P2;Temp;Humidity;BMP_temperature;BMP_pressure;BME280_temperature;BME280_humidity;BME280_pressure;Samples;Min_cycle;Max_cycle;Signal;HPM_P1;HPM_P2
2022/05/15 08:49:41;;;;;;;13.98;3.58;;;21.40;94.60;;;;;;4975305;28;20133;-84
2022/05/15 08:52:24;;;;;;;16.42;3.85;;;21.50;95.40;;;;;;4991441;28;20061;-82
2022/05/15 08:55:01;;;;;;;13.52;3.50;;;21.70;95.20;;;;;;4957139;28;20082;-83
2022/05/15 08:57:38;;;;;;;18.02;4.25;;;21.70;95.10;;;;;;4976510;28;20051;-86
2022/05/15 09:00:10;;;;;;;10.27;3.28;;;21.70;94.60;;;;;;4958108;28;20086;-87
2022/05/15 09:02:40;;;;;;;15.90;4.57;;;21.80;94.10;;;;;;4957835;28;20105;-86
2022/05/15 09:05:06;;;;;;;15.00;3.75;;;21.80;94.40;;;;;;4976260;28;20058;-84
2022/05/15 09:07:52;;;;;;;13.02;4.40;;;21.90;94.80;;;;;;4958038;28;20066;-85
2022/05/15 09:10:27;;;;;;;15.15;3.53;;;22.00;94.60;;;;;;4975812;28;20047;-83
2022/05/15 09:13:12;;;;;;;15.13;3.95;;;22.00;94.50;;;;;;4979985;28;20418;-82
2022/05/15 09:15:59;;;;;;;12.45;3.28;;;22.00;93.10;;;;;;4978373;28;20058;-84
2022/05/15 09:18:26;;;;;;;14.05;3.92;;;22.20;93.40;;;;;;4976718;28;20047;-84
2022/05/15 09:20:52;;;;;;;16.35;3.60;;;22.30;94.00;;;;;;4980847;28;20055;-86
2022/05/15 09:23:29;;;;;;;9.25;3.20;;;22.40;93.20;;;;;;4980193;28;20046;-85
2022/05/15 09:26:20;;;;;;;18.13;3.88;;;22.30;93.10;;;;;;4977214;28;20411;-82
2022/05/15 09:29:01;;;;;;;12.52;3.50;;;22.50;93.40;;;;;;4979009;28;20059;-85
2022/05/15 09:31:35;;;;;;;11.07;3.60;;;22.60;92.80;;;;;;4974018;28;20086;-84
2022/05/15 09:34:10;;;;;;;10.30;3.03;;;22.50;92.70;;;;;;4972896;28;20113;-84
2022/05/15 09:36:42;;;;;;;11.18;3.50;;;22.60;93.10;;;;;;4975700;28;20073;-85
2022/05/15 09:39:17;;;;;;;11.57;3.33;;;22.60;92.70;;;;;;4959056;28;20138;-84
2022/05/15 09:44:34;;;;;;;12.63;3.40;;;22.90;92.10;;;;;;4956239;28;20071;-83
2022/05/15 09:47:20;;;;;;;11.45;2.80;;;22.90;91.20;;;;;;4973794;28;20051;-81
2022/05/15 09:49:46;;;;;;;12.32;3.63;;;22.80;91.10;;;;;;4970953;28;20062;-82
2022/05/15 09:52:38;;;;;;;11.43;3.20;;;23.00;91.00;;;;;;4971925;28;20105;-82
2022/05/15 09:55:25;;;;;;;13.23;3.60;;;23.20;91.00;;;;;;4953463;28;20090;-81
2022/05/15 09:58:03;;;;;;;10.13;2.75;;;23.10;91.10;;;;;;4956048;28;20408;-82
2022/05/15 10:00:38;;;;;;;11.88;3.15;;;23.10;90.30;;;;;;4973283;28;20069;-82
2022/05/15 10:03:25;;;;;;;11.20;2.85;;;23.10;88.40;;;;;;4955457;28;20130;-83
2022/05/15 10:06:01;;;;;;;10.07;2.50;;;23.20;86.00;;;;;;4972889;28;20515;-82
2022/05/15 10:08:29;;;;;;;9.57;2.80;;;23.40;87.40;;;;;;4958109;28;20058;-79
2022/05/15 10:11:01;;;;;;;10.20;1.98;;;23.50;87.60;;;;;;4975205;28;20509;-82
2022/05/15 10:13:45;;;;;;;11.52;2.65;;;23.50;84.10;;;;;;4958949;28;20054;-80
2022/05/15 10:16:20;;;;;;;7.05;2.33;;;23.50;78.50;;;;;;4980656;28;20051;-83
2022/05/15 10:19:08;;;;;;;9.77;2.13;;;23.60;81.70;;;;;;4980305;28;20107;-82
2022/05/15 10:21:48;;;;;;;7.97;2.17;;;23.70;80.50;;;;;;4972889;28;20130;-84
2022/05/15 10:24:27;;;;;;;7.35;1.92;;;23.60;77.30;;;;;;4955690;28;20101;-84
2022/05/15 10:27:05;;;;;;;5.90;1.77;;;23.70;74.50;;;;;;4956773;28;20054;-82
2022/05/15 10:29:58;;;;;;;7.00;1.67;;;23.80;73.60;;;;;;4972907;28;20083;-82
2022/05/15 10:32:40;;;;;;;7.45;2.05;;;23.70;70.40;;;;;;4955286;28;20130;-85
2022/05/15 10:35:24;;;;;;;7.30;1.98;;;23.70;72.50;;;;;;4975562;28;20059;-82
2022/05/15 10:38:17;;;;;;;7.03;1.55;;;23.90;72.80;;;;;;4979019;28;20054;-82
2022/05/15 10:40:56;;;;;;;4.72;1.60;;;24.10;69.80;;;;;;4973711;28;20448;-82
2022/05/15 10:43:36;;;;;;;5.57;1.70;;;24.20;67.10;;;;;;4954721;28;20046;-82
2022/05/15 10:46:24;;;;;;;5.90;1.58;;;24.30;65.40;;;;;;4938904;28;20085;-81
2022/05/15 10:48:58;;;;;;;5.05;1.40;;;24.50;63.50;;;;;;4954531;28;20051;-83
2022/05/15 10:52:02;;;;;;;5.97;1.58;;;24.50;64.20;;;;;;4972191;28;20635;-83
2022/05/15 10:57:50;;;;;;;7.05;1.73;;;24.50;61.10;;;;;;4974395;28;20381;-83
2022/05/15 11:01:03;;;;;;;9.60;2.40;;;24.40;58.40;;;;;;4957326;28;20533;-84
2022/05/15 11:03:47;;;;;;;6.25;2.00;;;24.70;58.80;;;;;;4920870;29;20296;-81
2022/05/15 11:06:50;;;;;;;4.50;1.35;;;24.80;59.50;;;;;;4952959;29;20051;-83
2022/05/15 11:10:10;;;;;;;4.22;0.90;;;25.10;58.80;;;;;;4971720;28;20054;-84
2022/05/15 11:12:35;;;;;;;3.05;1.17;;;25.00;54.00;;;;;;4932004;29;20183;-82
2022/05/15 11:15:13;;;;;;;5.28;1.30;;;25.00;55.60;;;;;;4952192;28;20055;-85
2022/05/15 11:18:06;;;;;;;6.68;1.10;;;25.00;54.80;;;;;;4972443;28;20054;-83
2022/05/15 11:20:45;;;;;;;5.72;1.40;;;25.20;54.50;;;;;;4966946;28;20059;-82
2022/05/15 11:23:37;;;;;;;6.10;1.70;;;25.20;55.60;;;;;;4972030;28;20612;-82
2022/05/15 11:26:25;;;;;;;5.32;1.90;;;25.20;57.30;;;;;;4943646;29;20055;-82
2022/05/15 11:28:55;;;;;;;5.78;1.70;;;25.50;59.00;;;;;;4972009;28;20055;-81
2022/05/15 11:31:50;;;;;;;11.07;2.42;;;25.60;57.70;;;;;;4972280;28;20522;-85
2022/05/15 11:34:16;;;;;;;11.13;2.67;;;25.80;63.10;;;;;;4971780;28;20061;-81
2022/05/15 11:36:47;;;;;;;9.30;2.47;;;25.50;63.80;;;;;;4974296;28;20051;-82
2022/05/15 11:39:13;;;;;;;9.40;2.85;;;25.40;65.40;;;;;;4954520;28;20069;-82
2022/05/15 11:42:10;;;;;;;10.05;2.65;;;25.70;68.10;;;;;;4976136;28;20054;-82
2022/05/15 11:44:37;;;;;;;10.23;2.92;;;25.90;69.80;;;;;;4975751;28;20134;-82
2022/05/15 11:47:31;;;;;;;13.40;3.20;;;26.00;70.80;;;;;;4958239;28;20054;-81
2022/05/15 11:50:04;;;;;;;11.38;3.20;;;26.10;71.10;;;;;;4969802;28;20057;-81
2022/05/15 11:52:41;;;;;;;12.80;3.30;;;26.10;72.10;;;;;;4944173;28;20054;-82
2022/05/15 11:55:41;;;;;;;9.40;3.55;;;25.80;68.10;;;;;;4960160;28;20086;-81
2022/05/15 11:58:16;;;;;;;13.23;3.55;;;25.60;73.50;;;;;;4961719;28;20058;-82
2022/05/15 12:00:42;;;;;;;9.70;3.10;;;25.40;73.30;;;;;;4983346;28;20043;-82
2022/05/15 12:03:39;;;;;;;15.30;4.28;;;25.10;78.30;;;;;;4977546;28;20135;-83
2022/05/15 12:06:08;;;;;;;13.02;3.88;;;25.10;77.40;;;;;;4958231;28;20071;-83
2022/05/15 12:08:37;;;;;;;17.48;4.13;;;25.00;80.00;;;;;;4975954;28;20079;-82
2022/05/15 12:11:34;;;;;;;12.18;3.90;;;24.90;81.40;;;;;;4975310;28;20046;-82
2022/05/15 12:14:25;;;;;;;14.02;4.15;;;25.00;84.30;;;;;;4923568;28;20098;-83
2022/05/15 12:17:23;;;;;;;13.90;3.92;;;25.10;86.70;;;;;;4976045;28;20046;-83
2022/05/15 12:19:50;;;;;;;14.25;4.82;;;25.20;85.50;;;;;;4958963;28;20051;-81
2022/05/15 12:22:17;;;;;;;14.82;4.45;;;25.20;86.30;;;;;;4957743;28;20055;-82
2022/05/15 12:24:49;;;;;;;13.48;3.85;;;25.40;87.30;;;;;;4942845;28;20054;-83
2022/05/15 12:27:20;;;;;;;13.10;3.65;;;25.30;87.10;;;;;;4975337;28;20142;-85
2022/05/15 12:36:55;;;;;;;19.30;4.05;;;25.90;81.30;;;;;;4976244;28;20057;-81
2022/05/15 12:39:25;;;;;;;17.30;3.90;;;26.10;82.80;;;;;;4975634;28;20063;-83
2022/05/15 12:41:52;;;;;;;15.65;4.80;;;26.10;82.10;;;;;;4974636;28;20061;-85
2022/05/15 12:44:36;;;;;;;13.43;4.32;;;26.30;81.30;;;;;;4957339;28;20058;-84
2022/05/15 12:47:05;;;;;;;13.27;3.67;;;26.60;77.70;;;;;;4957877;28;20054;-81
2022/05/15 12:49:39;;;;;;;11.02;3.00;;;26.50;76.80;;;;;;4978858;28;20431;-85
2022/05/15 12:52:34;;;;;;;11.87;3.80;;;26.80;76.30;;;;;;4975165;28;20050;-82
2022/05/15 12:55:07;;;;;;;11.43;3.25;;;27.20;74.70;;;;;;4950964;28;20062;-82
2022/05/15 12:57:47;;;;;;;11.90;3.00;;;27.20;72.20;;;;;;4976541;28;20054;-84
2022/05/15 13:00:16;;;;;;;11.35;3.35;;;27.30;69.50;;;;;;4945722;28;20350;-86
2022/05/15 13:02:42;;;;;;;12.25;2.65;;;27.20;69.20;;;;;;4957360;28;20047;-84
2022/05/15 13:05:19;;;;;;;13.13;3.35;;;27.60;68.30;;;;;;4957400;28;20090;-82
2022/05/15 13:07:45;;;;;;;10.20;2.72;;;27.10;63.10;;;;;;4974147;28;20050;-84
2022/05/15 13:10:19;;;;;;;12.23;3.38;;;26.90;64.10;;;;;;4957977;28;20440;-82
2022/05/15 13:12:59;;;;;;;11.73;2.83;;;27.00;63.10;;;;;;4957333;28;20376;-82
2022/05/15 13:15:28;;;;;;;9.10;2.25;;;27.10;65.50;;;;;;4975095;28;20509;-83
2022/05/15 13:17:57;;;;;;;10.25;2.47;;;27.40;61.10;;;;;;4973788;28;20403;-82
2022/05/15 13:20:26;;;;;;;8.68;2.67;;;27.30;60.90;;;;;;4974611;28;20406;-83
2022/05/15 13:22:54;;;;;;;8.68;2.83;;;27.30;60.30;;;;;;4974716;28;20051;-81
2022/05/15 13:25:41;;;;;;;10.93;2.65;;;27.70;58.30;;;;;;4960665;28;20137;-81
2022/05/15 13:28:10;;;;;;;9.90;2.20;;;27.60;56.80;;;;;;4969914;28;20419;-81
2022/05/15 13:30:37;;;;;;;10.25;2.70;;;27.80;57.20;;;;;;4974527;28;20058;-80
2022/05/15 13:33:18;;;;;;;6.97;2.17;;;27.70;57.00;;;;;;4978179;28;20046;-83
2022/05/15 13:35:52;;;;;;;8.35;2.10;;;28.00;57.10;;;;;;4963525;28;20403;-83
2022/05/15 13:43:17;;;;;;;8.80;2.53;;;27.80;55.60;;;;;;4964711;28;20051;-83
2022/05/15 13:44:13;;;;;;;14.00;3.20;;;28.80;54.20;;;;;;4973544;28;20051;-83
2022/05/15 13:47:06;;;;;;;10.27;2.92;;;29.20;53.70;;;;;;4973614;28;20244;-81
2022/05/15 13:49:42;;;;;;;8.25;2.65;;;29.30;52.80;;;;;;4968782;28;20090;-84
2022/05/15 13:55:51;;;;;;;9.00;2.28;;;29.80;49.70;;;;;;4973716;28;20050;-83
2022/05/15 13:58:18;;;;;;;7.20;2.20;;;29.90;48.80;;;;;;4973915;28;20082;-81
2022/05/15 14:01:02;;;;;;;7.43;2.20;;;30.20;48.90;;;;;;4973303;28;20603;-82
2022/05/15 14:03:31;;;;;;;8.50;2.73;;;30.60;46.90;;;;;;4972626;28;20137;-85
2022/05/15 14:06:18;;;;;;;10.52;2.28;;;30.40;47.70;;;;;;4974638;28;20527;-81
2022/05/15 14:09:04;;;;;;;13.00;2.83;;;30.80;48.00;;;;;;4979433;28;20093;-82
2022/05/15 14:11:57;;;;;;;13.10;2.70;;;30.70;47.40;;;;;;4962942;28;20051;-81
2022/05/15 14:14:51;;;;;;;13.82;3.50;;;30.30;45.30;;;;;;4973909;28;20050;-83
2022/05/15 14:17:29;;;;;;;9.50;2.65;;;30.30;45.90;;;;;;4973734;28;20084;-82
2022/05/15 14:20:01;;;;;;;8.68;2.97;;;30.20;47.30;;;;;;4973368;28;20061;-83
2022/05/15 14:22:27;;;;;;;7.05;2.17;;;30.50;47.10;;;;;;4973392;28;20089;-80
2022/05/15 14:24:54;;;;;;;6.93;2.03;;;30.60;46.50;;;;;;4955410;28;20051;-82
2022/05/15 14:27:24;;;;;;;9.48;2.60;;;30.70;45.90;;;;;;4973662;28;20051;-82
2022/05/15 14:29:50;;;;;;;8.45;2.17;;;30.50;45.50;;;;;;4973671;28;20090;-82
2022/05/15 14:32:30;;;;;;;10.68;3.20;;;30.00;46.70;;;;;;4973914;28;20507;-82
2022/05/15 14:35:02;;;;;;;8.63;2.45;;;29.80;45.30;;;;;;4974314;28;20051;-80
2022/05/15 14:37:29;;;;;;;8.10;2.90;;;29.50;46.50;;;;;;4958245;28;20059;-82
2022/05/15 14:39:58;;;;;;;6.40;2.53;;;29.30;46.00;;;;;;4959070;28;20051;-81
2022/05/15 14:42:24;;;;;;;8.85;2.47;;;29.20;46.60;;;;;;4973747;28;20091;-83
2022/05/15 14:44:50;;;;;;;8.90;2.10;;;29.00;47.20;;;;;;4958336;28;20047;-82
2022/05/15 14:47:19;;;;;;;9.98;2.40;;;29.20;47.20;;;;;;4969228;28;20051;-82
2022/05/15 14:49:51;;;;;;;11.80;2.85;;;29.20;47.00;;;;;;4973622;28;20065;-83
2022/05/15 14:52:21;;;;;;;9.90;2.25;;;29.10;47.30;;;;;;4958814;28;20059;-83
2022/05/15 14:54:47;;;;;;;10.27;2.08;;;29.60;47.50;;;;;;4975567;28;20126;-84
2022/05/15 14:57:14;;;;;;;10.10;2.45;;;29.30;47.00;;;;;;4976445;28;20589;-82
2022/05/15 14:59:43;;;;;;;6.57;1.90;;;28.70;46.90;;;;;;4980949;28;20054;-82
2022/05/15 15:02:10;;;;;;;9.18;2.10;;;28.50;47.10;;;;;;4977881;28;20090;-83
2022/05/15 15:04:37;;;;;;;5.88;1.77;;;28.50;46.80;;;;;;4974807;28;20126;-85
2022/05/15 15:07:04;;;;;;;6.90;1.88;;;28.50;47.20;;;;;;4973738;28;20053;-81
2022/05/15 15:09:34;;;;;;;6.97;2.03;;;28.40;46.80;;;;;;4972644;28;20494;-82
2022/05/15 15:12:01;;;;;;;9.23;2.90;;;28.30;47.60;;;;;;4967998;28;20066;-84
2022/05/15 15:14:28;;;;;;;8.15;1.83;;;28.20;47.20;;;;;;4971199;28;20121;-83
2022/05/15 15:16:55;;;;;;;7.25;2.15;;;28.10;47.90;;;;;;4977215;28;20110;-84
2022/05/15 15:19:23;;;;;;;6.40;2.17;;;28.10;48.50;;;;;;4964655;28;20062;-82
2022/05/15 15:21:52;;;;;;;7.65;2.25;;;28.20;48.60;;;;;;4966622;28;20051;-82
2022/05/15 15:24:18;;;;;;;10.07;2.45;;;28.40;47.90;;;;;;4981366;28;20147;-81
2022/05/15 15:26:44;;;;;;;9.82;2.10;;;28.30;47.70;;;;;;4959630;28;20137;-83
2022/05/15 15:29:15;;;;;;;8.25;2.40;;;28.20;47.50;;;;;;4976702;28;20057;-83
2022/05/15 15:31:42;;;;;;;10.32;2.88;;;27.80;47.10;;;;;;4958559;28;20046;-82
2022/05/15 15:34:10;;;;;;;8.73;2.17;;;27.60;48.00;;;;;;4975910;28;20050;-82
2022/05/15 15:36:39;;;;;;;7.88;2.50;;;27.60;48.70;;;;;;4957460;28;20054;-84
2022/05/15 15:39:08;;;;;;;6.13;1.80;;;27.70;48.30;;;;;;4976686;28;20066;-81
2022/05/15 15:41:36;;;;;;;7.15;2.15;;;27.30;48.60;;;;;;4963022;28;20086;-85
2022/05/15 15:44:03;;;;;;;7.25;1.90;;;26.90;47.90;;;;;;4958812;28;20503;-82
2022/05/15 15:46:29;;;;;;;8.45;2.10;;;26.60;49.10;;;;;;4975840;28;20059;-82
2022/05/15 15:48:56;;;;;;;9.00;2.30;;;26.30;49.50;;;;;;4958096;28;20059;-85
2022/05/15 15:51:25;;;;;;;6.60;1.42;;;25.90;50.30;;;;;;4976774;28;20141;-82
2022/05/15 15:53:54;;;;;;;8.63;1.75;;;25.50;50.40;;;;;;4980521;28;20054;-82
2022/05/15 15:56:23;;;;;;;13.27;2.63;;;25.00;51.10;;;;;;4960866;28;20109;-82
2022/05/15 15:58:49;;;;;;;6.93;1.88;;;24.70;52.10;;;;;;4959727;28;20061;-82
2022/05/15 16:01:21;;;;;;;7.18;2.30;;;24.40;52.90;;;;;;4963860;28;20051;-83
2022/05/15 16:03:47;;;;;;;7.30;2.08;;;24.30;54.10;;;;;;4976788;28;20065;-82
2022/05/15 16:06:14;;;;;;;12.88;3.05;;;24.10;54.10;;;;;;4975763;28;20121;-83
2022/05/15 16:08:40;;;;;;;9.10;2.35;;;23.80;55.20;;;;;;4975608;28;20059;-82
2022/05/15 16:11:07;;;;;;;8.82;2.95;;;23.60;56.80;;;;;;4958597;28;20055;-84
2022/05/15 16:13:33;;;;;;;7.72;2.63;;;23.50;57.70;;;;;;4975795;28;20113;-81
2022/05/15 16:15:59;;;;;;;9.65;2.63;;;23.30;59.00;;;;;;4978506;28;20117;-83
2022/05/15 16:18:27;;;;;;;6.97;1.98;;;23.00;61.00;;;;;;4944572;28;20423;-83
2022/05/15 16:20:58;;;;;;;10.27;3.03;;;22.80;64.40;;;;;;4973388;28;20050;-83
2022/05/15 16:23:28;;;;;;;12.32;2.90;;;22.60;68.20;;;;;;4957990;28;20516;-84
2022/05/15 16:25:56;;;;;;;9.93;2.67;;;22.50;71.80;;;;;;4978358;28;20086;-83
2022/05/15 16:28:23;;;;;;;12.60;2.65;;;22.40;74.10;;;;;;4957958;28;20046;-82
2022/05/15 16:30:49;;;;;;;11.07;2.53;;;22.20;76.90;;;;;;4949485;28;20059;-85
2022/05/15 16:33:16;;;;;;;11.40;3.10;;;21.90;82.70;;;;;;4958550;28;20067;-83
2022/05/15 16:35:42;;;;;;;8.98;2.72;;;21.70;87.70;;;;;;4943947;28;20090;-85
2022/05/15 16:38:09;;;;;;;15.48;3.28;;;21.60;90.40;;;;;;4979466;28;20055;-83
2022/05/15 16:40:37;;;;;;;14.90;2.63;;;21.40;91.30;;;;;;4977226;28;20138;-80
2022/05/15 16:43:04;;;;;;;11.60;2.78;;;21.30;92.10;;;;;;4958864;28;20406;-81
2022/05/15 16:45:32;;;;;;;13.15;2.70;;;21.10;93.20;;;;;;4960177;28;20057;-83
2022/05/15 16:47:58;;;;;;;8.93;2.92;;;20.90;94.00;;;;;;4975428;28;20055;-82
2022/05/15 16:50:26;;;;;;;13.35;3.17;;;20.80;94.70;;;;;;4956796;28;20051;-84
2022/05/15 16:52:53;;;;;;;10.88;2.80;;;20.70;95.00;;;;;;4956970;28;20061;-86
2022/05/15 16:55:25;;;;;;;12.50;2.78;;;20.50;95.60;;;;;;4974680;28;20050;-85
2022/05/15 16:57:51;;;;;;;12.18;3.00;;;20.30;96.30;;;;;;4973610;28;20497;-84
2022/05/15 17:00:18;;;;;;;16.17;3.22;;;20.30;96.80;;;;;;4974383;28;20058;-84
2022/05/15 17:02:46;;;;;;;12.63;3.20;;;20.20;97.10;;;;;;4961524;28;20074;-82
2022/05/15 17:05:14;;;;;;;15.32;4.47;;;20.10;97.60;;;;;;4978022;28;20129;-83
2022/05/15 17:07:40;;;;;;;14.30;3.35;;;19.80;98.00;;;;;;4957632;28;20054;-83
2022/05/15 17:10:07;;;;;;;14.65;4.40;;;19.60;98.50;;;;;;4974218;28;20047;-85
2022/05/15 17:12:33;;;;;;;14.68;3.75;;;19.50;99.10;;;;;;4976365;28;20082;-81
2022/05/15 17:14:59;;;;;;;13.45;3.58;;;19.40;99.30;;;;;;4976704;28;20461;-85
2022/05/15 17:17:26;;;;;;;17.05;4.28;;;19.30;99.40;;;;;;4973341;28;20050;-82
2022/05/15 17:19:52;;;;;;;14.18;3.92;;;19.20;99.90;;;;;;4973643;28;20042;-80
2022/05/15 17:22:18;;;;;;;12.07;3.55;;;19.10;99.90;;;;;;4976370;28;20058;-82
2022/05/15 17:24:44;;;;;;;14.02;3.95;;;18.90;99.90;;;;;;4975718;28;20085;-82
2022/05/15 17:27:10;;;;;;;14.57;4.30;;;18.80;99.90;;;;;;4973569;28;20090;-83
2022/05/15 17:35:10;;;;;;;14.20;3.97;;;18.50;99.90;;;;;;4973467;28;20051;-84
2022/05/15 17:37:37;;;;;;;13.90;4.07;;;18.40;99.90;;;;;;4956168;28;20564;-82
2022/05/15 17:40:06;;;;;;;14.07;3.85;;;18.40;99.90;;;;;;4976734;28;20066;-86
2022/05/15 17:42:32;;;;;;;16.33;4.57;;;18.30;99.90;;;;;;4974917;28;20050;-83
2022/05/15 17:44:58;;;;;;;14.32;4.38;;;18.30;99.90;;;;;;4974028;28;20061;-82
2022/05/15 17:47:24;;;;;;;15.75;3.72;;;18.20;99.90;;;;;;4975369;28;20347;-83
2022/05/15 17:49:50;;;;;;;16.27;3.95;;;18.00;99.90;;;;;;4939094;28;1145066;-83
2022/05/15 17:52:18;;;;;;;14.80;3.55;;;17.90;99.90;;;;;;4976424;28;20448;-84
2022/05/15 17:54:45;;;;;;;14.80;4.15;;;17.80;99.90;;;;;;4961141;28;20082;-83
2022/05/15 17:57:12;;;;;;;14.02;3.38;;;17.70;99.90;;;;;;4961428;28;20047;-82
2022/05/15 17:59:38;;;;;;;15.48;3.55;;;17.60;99.90;;;;;;4958753;28;20047;-82
2022/05/15 18:02:05;;;;;;;13.60;3.72;;;17.50;99.90;;;;;;4958430;28;20062;-80
2022/05/15 18:04:32;;;;;;;13.40;3.55;;;17.50;99.90;;;;;;4963268;28;20059;-79
2022/05/15 18:06:59;;;;;;;15.60;3.47;;;17.40;99.90;;;;;;4980251;28;20058;-81
2022/05/15 18:09:25;;;;;;;10.90;3.38;;;17.40;99.90;;;;;;4974468;28;20047;-81
2022/05/15 18:11:51;;;;;;;14.98;3.75;;;17.30;99.90;;;;;;4956437;28;20055;-85
2022/05/15 18:14:17;;;;;;;16.60;4.32;;;17.10;99.90;;;;;;4976522;28;20047;-81
2022/05/15 18:16:43;;;;;;;16.85;4.15;;;17.10;99.90;;;;;;4973766;28;20082;-85
2022/05/15 18:19:09;;;;;;;13.90;4.13;;;17.10;99.90;;;;;;4956833;28;20049;-85
2022/05/15 18:21:36;;;;;;;16.55;3.80;;;17.00;99.90;;;;;;4974217;28;20054;-80
2022/05/15 18:24:04;;;;;;;13.23;4.53;;;17.00;99.90;;;;;;4977540;28;20054;-82
2022/05/15 18:26:30;;;;;;;17.85;4.57;;;16.80;99.90;;;;;;4975960;28;20054;-82
2022/05/15 18:29:00;;;;;;;14.73;3.95;;;16.80;99.90;;;;;;4976207;28;20050;-83
2022/05/15 18:31:26;;;;;;;15.68;3.55;;;16.80;99.90;;;;;;4977274;28;20058;-81
2022/05/15 18:33:53;;;;;;;12.90;3.22;;;16.70;99.90;;;;;;4973965;28;20050;-82
2022/05/15 18:36:19;;;;;;;17.85;4.13;;;16.70;99.90;;;;;;4976524;28;20065;-80
2022/05/15 18:38:45;;;;;;;12.95;3.28;;;16.60;99.90;;;;;;4955775;28;20518;-82
2022/05/15 18:41:11;;;;;;;15.00;3.75;;;16.50;99.90;;;;;;4977622;28;20055;-85
2022/05/15 18:43:38;;;;;;;17.15;3.63;;;16.50;99.90;;;;;;4981728;28;20141;-85
2022/05/15 18:46:04;;;;;;;12.65;3.10;;;16.40;99.90;;;;;;4971899;28;20066;-82
2022/05/15 18:48:30;;;;;;;12.55;4.10;;;16.40;99.90;;;;;;4954077;28;20061;-83
2022/05/15 18:56:29;;;;;;;15.60;3.45;;;16.30;99.90;;;;;;4973887;28;20526;-81
2022/05/15 18:58:55;;;;;;;14.70;3.97;;;16.20;99.90;;;;;;4942609;28;20054;-82
2022/05/15 19:01:21;;;;;;;17.63;4.30;;;16.20;99.90;;;;;;4973682;28;20507;-80
2022/05/15 19:03:47;;;;;;;9.88;3.75;;;16.10;99.90;;;;;;4973784;28;20125;-82
2022/05/15 19:06:13;;;;;;;13.00;3.65;;;16.00;99.90;;;;;;4974293;28;20050;-83
2022/05/15 19:08:39;;;;;;;14.52;4.10;;;16.00;99.90;;;;;;4941624;28;20118;-82
2022/05/15 19:11:05;;;;;;;13.15;3.50;;;15.90;99.90;;;;;;4957189;28;20047;-86
2022/05/15 19:13:31;;;;;;;17.63;3.58;;;15.80;99.90;;;;;;4973852;28;20434;-82
2022/05/15 19:15:59;;;;;;;12.18;3.95;;;15.80;99.90;;;;;;4956717;28;20050;-80
2022/05/15 19:18:25;;;;;;;13.35;3.20;;;15.80;99.90;;;;;;4955213;28;20062;-83
2022/05/15 19:20:51;;;;;;;12.57;3.83;;;15.70;99.90;;;;;;4955137;28;20078;-83
2022/05/15 19:23:17;;;;;;;10.35;3.45;;;15.70;99.90;;;;;;4954447;28;20090;-80
2022/05/15 19:25:43;;;;;;;16.15;4.22;;;15.70;99.90;;;;;;4954455;28;20055;-81
2022/05/15 19:28:10;;;;;;;16.02;4.38;;;15.60;99.90;;;;;;4955432;28;20051;-83
2022/05/15 19:30:39;;;;;;;14.23;3.72;;;15.60;99.90;;;;;;4977528;28;20051;-79
2022/05/15 19:33:05;;;;;;;13.60;4.10;;;15.60;99.90;;;;;;4977713;28;20054;-80
2022/05/15 19:35:32;;;;;;;15.90;3.83;;;15.60;99.90;;;;;;4972346;28;20595;-86
2022/05/15 19:37:58;;;;;;;17.58;4.07;;;15.50;99.90;;;;;;4972192;28;20129;-81
2022/05/15 19:40:25;;;;;;;11.57;3.10;;;15.50;99.90;;;;;;4954112;28;20051;-81
2022/05/15 19:42:51;;;;;;;14.18;4.32;;;15.40;99.90;;;;;;4972085;28;20125;-82
2022/05/15 19:45:17;;;;;;;10.52;3.83;;;15.40;99.90;;;;;;4975674;28;20046;-80
2022/05/15 19:47:43;;;;;;;11.75;3.28;;;15.30;99.90;;;;;;4947627;28;20059;-78
2022/05/15 19:50:10;;;;;;;15.15;3.33;;;15.30;99.90;;;;;;4973444;28;20530;-83
2022/05/15 19:52:36;;;;;;;11.95;3.20;;;15.20;99.90;;;;;;4957444;28;20063;-84
2022/05/15 19:55:03;;;;;;;11.65;4.15;;;15.30;99.90;;;;;;4973735;28;20126;-82
2022/05/15 19:57:29;;;;;;;16.30;3.50;;;15.20;99.90;;;;;;4972369;28;20101;-82
2022/05/15 19:59:55;;;;;;;14.38;3.38;;;15.20;99.90;;;;;;4974079;28;20050;-83
2022/05/15 20:02:21;;;;;;;15.77;3.53;;;15.20;99.90;;;;;;4962304;28;20066;-82
2022/05/15 20:13:03;;;;;;;10.57;2.88;;;15.00;99.90;;;;;;4974888;28;20051;-82
2022/05/15 20:15:30;;;;;;;20.27;4.72;;;15.00;99.90;;;;;;4973094;28;20081;-85
2022/05/15 20:17:57;;;;;;;12.73;3.30;;;15.00;99.90;;;;;;4960537;28;20059;-83
2022/05/15 20:20:24;;;;;;;15.13;3.75;;;15.00;99.90;;;;;;4980155;28;20126;-80
2022/05/15 20:22:50;;;;;;;16.73;4.63;;;15.00;99.90;;;;;;4975464;28;20082;-87
2022/05/15 20:25:17;;;;;;;9.27;3.33;;;14.90;99.90;;;;;;4976237;28;20533;-82
2022/05/15 20:27:43;;;;;;;10.35;3.05;;;14.90;99.90;;;;;;4961540;28;20080;-81
2022/05/15 20:30:10;;;;;;;12.25;4.00;;;14.90;99.90;;;;;;4977849;28;20094;-81
2022/05/15 20:32:36;;;;;;;14.48;3.78;;;14.90;99.90;;;;;;4941583;28;20141;-82
2022/05/15 20:35:02;;;;;;;13.85;3.55;;;14.90;99.90;;;;;;4942776;28;20193;-79
2022/05/15 20:37:28;;;;;;;15.55;3.85;;;14.80;99.90;;;;;;4978301;28;20047;-84
2022/05/15 20:39:54;;;;;;;16.58;3.55;;;14.80;99.90;;;;;;4957647;28;20058;-81
2022/05/15 20:42:22;;;;;;;11.25;3.65;;;14.80;99.90;;;;;;4942028;28;20097;-85
2022/05/15 20:44:48;;;;;;;14.32;4.10;;;14.80;99.90;;;;;;4966635;28;20078;-81
2022/05/15 20:47:14;;;;;;;15.88;4.63;;;14.80;99.90;;;;;;4974682;28;20055;-82
2022/05/15 20:49:41;;;;;;;13.93;4.57;;;14.80;99.90;;;;;;4959335;28;20514;-81
2022/05/15 20:52:07;;;;;;;14.32;3.35;;;14.80;99.90;;;;;;4980856;28;20113;-82
2022/05/15 20:54:36;;;;;;;12.02;3.78;;;14.80;99.90;;;;;;4980447;28;20058;-81
2022/05/15 20:57:04;;;;;;;14.52;4.88;;;14.80;99.90;;;;;;4957492;28;20054;-81
2022/05/15 20:59:30;;;;;;;14.55;3.95;;;14.70;99.90;;;;;;4956768;28;20061;-85
2022/05/15 21:01:57;;;;;;;18.88;4.15;;;14.70;99.90;;;;;;4974489;28;20475;-81
2022/05/15 21:04:24;;;;;;;20.45;4.63;;;14.80;99.90;;;;;;4975125;28;20495;-81
2022/05/15 21:06:51;;;;;;;14.20;4.07;;;14.80;99.90;;;;;;4975443;28;20509;-84
2022/05/15 21:09:16;;;;;;;18.45;4.15;;;14.80;99.90;;;;;;4961047;28;20055;-85
2022/05/15 21:11:42;;;;;;;15.38;3.80;;;14.80;99.90;;;;;;4956620;28;20109;-84
2022/05/15 21:14:09;;;;;;;11.70;3.88;;;14.70;99.90;;;;;;4974371;28;20117;-82
2022/05/15 21:16:35;;;;;;;17.60;5.20;;;14.70;99.90;;;;;;4972719;28;20050;-84
2022/05/15 21:19:00;;;;;;;13.32;3.90;;;14.70;99.90;;;;;;4975334;28;20114;-82
2022/05/15 21:21:26;;;;;;;17.23;4.68;;;14.70;99.90;;;;;;4976785;28;20047;-85
2022/05/15 21:23:53;;;;;;;14.15;4.45;;;14.70;99.90;;;;;;4957359;28;20069;-83
2022/05/15 21:26:19;;;;;;;16.77;4.95;;;14.60;99.90;;;;;;4959622;28;20141;-83
2022/05/15 21:28:45;;;;;;;16.52;4.38;;;14.60;99.90;;;;;;4957684;28;20501;-83
2022/05/15 21:31:11;;;;;;;13.73;4.90;;;14.70;99.90;;;;;;4972965;28;20055;-83
2022/05/15 21:33:37;;;;;;;13.95;4.10;;;14.60;99.90;;;;;;4956602;28;20046;-82
2022/05/15 21:36:06;;;;;;;18.30;4.85;;;14.60;99.90;;;;;;4972548;28;20491;-84
2022/05/15 21:44:02;;;;;;;16.38;4.55;;;14.60;99.90;;;;;;4977489;28;20507;-84
2022/05/15 21:46:28;;;;;;;15.35;4.50;;;14.60;99.90;;;;;;4979063;28;20050;-85
2022/05/15 21:48:54;;;;;;;16.42;4.00;;;14.50;99.90;;;;;;4973454;28;20054;-83
2022/05/15 21:51:22;;;;;;;12.30;3.97;;;14.60;99.90;;;;;;4974740;28;20507;-84
2022/05/15 21:53:49;;;;;;;18.50;6.13;;;14.50;99.90;;;;;;4958100;28;20085;-81
2022/05/15 21:56:19;;;;;;;12.55;4.45;;;14.50;99.90;;;;;;4957881;28;20053;-81
2022/05/15 22:00:01;;;;;;;12.45;4.03;;;14.50;99.90;;;;;;4979485;28;20094;-78
2022/05/15 22:01:32;;;;;;;15.70;4.90;;;14.50;99.90;;;;;;4975183;28;20557;-81
2022/05/15 22:03:58;;;;;;;12.88;4.55;;;14.50;99.90;;;;;;4963311;28;20078;-77
2022/05/15 22:06:24;;;;;;;13.48;4.57;;;14.40;99.90;;;;;;4977470;28;20082;-80
2022/05/15 22:08:50;;;;;;;12.02;4.18;;;14.40;99.90;;;;;;4973609;28;20089;-79
2022/05/15 22:11:16;;;;;;;14.57;3.95;;;14.40;99.90;;;;;;4956146;28;20046;-76
2022/05/15 22:13:42;;;;;;;14.27;4.53;;;14.40;99.90;;;;;;4975815;28;20055;-83
2022/05/15 22:16:09;;;;;;;10.13;4.10;;;14.30;99.90;;;;;;4956337;28;20058;-79
2022/05/15 22:18:35;;;;;;;18.17;5.78;;;14.30;99.90;;;;;;4972926;28;20069;-81
2022/05/15 22:21:01;;;;;;;15.63;4.82;;;14.30;99.90;;;;;;4973268;28;20074;-80
2022/05/15 22:23:27;;;;;;;14.35;4.63;;;14.20;99.90;;;;;;4956598;28;20054;-83
2022/05/15 22:25:54;;;;;;;13.88;4.90;;;14.20;99.90;;;;;;4975806;28;20129;-80
2022/05/15 22:28:22;;;;;;;16.50;6.20;;;14.20;99.90;;;;;;4948217;28;20046;-80
2022/05/15 22:30:48;;;;;;;11.05;4.97;;;14.20;99.90;;;;;;4974692;28;20047;-80
2022/05/15 22:33:14;;;;;;;15.25;4.25;;;14.10;99.90;;;;;;4972852;28;20042;-80
2022/05/15 22:35:46;;;;;;;10.50;4.15;;;14.10;99.90;;;;;;4955156;28;20059;-78